sensor_id;sensor_type;location;lat;lon;timestamp;temperature;humidity
55313;DHT22;46892;45.668;11.756;2023-11-21T00:00:19;8.00;79.50
55313;DHT22;46892;45.668;11.756;2023-11-21T00:02:45;8.00;79.80
55313;DHT22;46892;45.668;11.756;2023-11-21T00:05:13;8.00;79.90
55313;DHT22;46892;45.668;11.756;2023-11-21T00:07:40;8.00;80.00
55313;DHT22;46892;45.668;11.756;2023-11-21T00:10:07;7.90;80.10
55313;DHT22;46892;45.668;11.756;2023-11-21T00:12:34;7.90;80.60
55313;DHT22;46892;45.668;11.756;2023-11-21T00:15:00;7.90;80.80
55313;DHT22;46892;45.668;11.756;2023-11-21T00:17:27;7.90;80.20
55313;DHT22;46892;45.668;11.756;2023-11-21T00:19:53;7.90;80.10
55313;DHT22;46892;45.668;11.756;2023-11-21T00:22:19;8.10;79.20
55313;DHT22;46892;45.668;11.756;2023-11-21T00:24:45;8.00;79.50
55313;DHT22;46892;45.668;11.756;2023-11-21T00:27:12;8.00;79.40
55313;DHT22;46892;45.668;11.756;2023-11-21T00:29:37;7.90;79.60
55313;DHT22;46892;45.668;11.756;2023-11-21T00:32:05;8.10;78.90
55313;DHT22;46892;45.668;11.756;2023-11-21T00:34:31;8.00;79.40
55313;DHT22;46892;45.668;11.756;2023-11-21T00:36:58;7.90;79.90
55313;DHT22;46892;45.668;11.756;2023-11-21T00:39:23;7.90;79.80
55313;DHT22;46892;45.668;11.756;2023-11-21T00:41:50;7.90;79.90
55313;DHT22;46892;45.668;11.756;2023-11-21T00:44:16;7.90;79.90
55313;DHT22;46892;45.668;11.756;2023-11-21T00:46:42;7.90;80.00
55313;DHT22;46892;45.668;11.756;2023-11-21T00:49:08;7.90;80.00
55313;DHT22;46892;45.668;11.756;2023-11-21T00:51:34;7.90;80.20
55313;DHT22;46892;45.668;11.756;2023-11-21T00:54:00;7.90;80.20
55313;DHT22;46892;45.668;11.756;2023-11-21T00:56:26;7.90;80.30
55313;DHT22;46892;45.668;11.756;2023-11-21T00:58:52;8.00;80.20
55313;DHT22;46892;45.668;11.756;2023-11-21T01:01:20;8.00;80.10
55313;DHT22;46892;45.668;11.756;2023-11-21T01:03:46;8.00;80.30
55313;DHT22;46892;45.668;11.756;2023-11-21T01:06:12;8.00;80.70
55313;DHT22;46892;45.668;11.756;2023-11-21T01:08:38;7.90;80.70
55313;DHT22;46892;45.668;11.756;2023-11-21T01:11:04;7.90;80.90
55313;DHT22;46892;45.668;11.756;2023-11-21T01:13:30;7.90;81.00
55313;DHT22;46892;45.668;11.756;2023-11-21T01:15:56;7.90;80.40
55313;DHT22;46892;45.668;11.756;2023-11-21T01:18:22;8.00;80.20
55313;DHT22;46892;45.668;11.756;2023-11-21T01:20:51;8.00;80.10
55313;DHT22;46892;45.668;11.756;2023-11-21T01:23:18;8.00;80.00
55313;DHT22;46892;45.668;11.756;2023-11-21T01:25:44;8.10;80.20
55313;DHT22;46892;45.668;11.756;2023-11-21T01:28:10;8.00;80.40
55313;DHT22;46892;45.668;11.756;2023-11-21T01:30:36;8.00;80.30
55313;DHT22;46892;45.668;11.756;2023-11-21T01:33:02;8.00;80.30
55313;DHT22;46892;45.668;11.756;2023-11-21T01:35:28;8.10;80.00
55313;DHT22;46892;45.668;11.756;2023-11-21T01:37:54;8.30;79.40
55313;DHT22;46892;45.668;11.756;2023-11-21T01:40:19;8.30;78.90
55313;DHT22;46892;45.668;11.756;2023-11-21T01:42:46;8.40;78.40
55313;DHT22;46892;45.668;11.756;2023-11-21T01:45:13;8.50;77.70
55313;DHT22;46892;45.668;11.756;2023-11-21T01:47:40;8.50;77.70
55313;DHT22;46892;45.668;11.756;2023-11-21T01:50:08;8.60;77.70
55313;DHT22;46892;45.668;11.756;2023-11-21T01:52:35;8.50;77.80
55313;DHT22;46892;45.668;11.756;2023-11-21T01:55:02;8.40;78.30
55313;DHT22;46892;45.668;11.756;2023-11-21T01:57:28;8.30;78.70
55313;DHT22;46892;45.668;11.756;2023-11-21T01:59:55;8.30;79.20
55313;DHT22;46892;45.668;11.756;2023-11-21T02:02:21;8.40;78.90
55313;DHT22;46892;45.668;11.756;2023-11-21T02:04:47;8.50;78.80
55313;DHT22;46892;45.668;11.756;2023-11-21T02:07:13;8.40;78.70
55313;DHT22;46892;45.668;11.756;2023-11-21T02:09:38;8.30;79.10
55313;DHT22;46892;45.668;11.756;2023-11-21T02:12:08;8.30;79.40
55313;DHT22;46892;45.668;11.756;2023-11-21T02:14:36;8.10;79.80
55313;DHT22;46892;45.668;11.756;2023-11-21T02:17:02;8.00;80.10
55313;DHT22;46892;45.668;11.756;2023-11-21T02:19:29;7.90;80.80
55313;DHT22;46892;45.668;11.756;2023-11-21T02:21:57;7.80;81.00
55313;DHT22;46892;45.668;11.756;2023-11-21T02:24:32;7.80;81.40
55313;DHT22;46892;45.668;11.756;2023-11-21T02:26:58;7.70;81.60
55313;DHT22;46892;45.668;11.756;2023-11-21T02:29:24;7.70;81.80
55313;DHT22;46892;45.668;11.756;2023-11-21T02:31:54;7.60;81.90
55313;DHT22;46892;45.668;11.756;2023-11-21T02:34:21;7.50;82.50
55313;DHT22;46892;45.668;11.756;2023-11-21T02:36:47;7.40;82.60
55313;DHT22;46892;45.668;11.756;2023-11-21T02:39:17;7.40;82.80
55313;DHT22;46892;45.668;11.756;2023-11-21T02:41:44;7.40;83.20
55313;DHT22;46892;45.668;11.756;2023-11-21T02:44:10;7.40;83.20
55313;DHT22;46892;45.668;11.756;2023-11-21T02:46:36;7.30;83.20
55313;DHT22;46892;45.668;11.756;2023-11-21T02:49:06;7.40;83.20
55313;DHT22;46892;45.668;11.756;2023-11-21T02:51:32;7.40;83.20
55313;DHT22;46892;45.668;11.756;2023-11-21T02:53:58;7.30;83.00
55313;DHT22;46892;45.668;11.756;2023-11-21T02:56:27;7.30;83.60
55313;DHT22;46892;45.668;11.756;2023-11-21T02:58:55;7.30;83.20
55313;DHT22;46892;45.668;11.756;2023-11-21T03:01:21;7.20;83.60
55313;DHT22;46892;45.668;11.756;2023-11-21T03:03:47;7.20;84.30
55313;DHT22;46892;45.668;11.756;2023-11-21T03:06:17;7.20;84.20
55313;DHT22;46892;45.668;11.756;2023-11-21T03:08:43;7.30;84.10
55313;DHT22;46892;45.668;11.756;2023-11-21T03:11:08;7.00;84.30
55313;DHT22;46892;45.668;11.756;2023-11-21T03:13:34;7.00;84.50
55313;DHT22;46892;45.668;11.756;2023-11-21T03:16:00;7.00;84.60
55313;DHT22;46892;45.668;11.756;2023-11-21T03:18:26;6.90;84.60
55313;DHT22;46892;45.668;11.756;2023-11-21T03:20:54;6.90;84.90
55313;DHT22;46892;45.668;11.756;2023-11-21T03:23:20;6.90;85.00
55313;DHT22;46892;45.668;11.756;2023-11-21T03:25:46;6.80;84.90
55313;DHT22;46892;45.668;11.756;2023-11-21T03:28:12;6.90;85.20
55313;DHT22;46892;45.668;11.756;2023-11-21T03:30:38;6.90;85.20
55313;DHT22;46892;45.668;11.756;2023-11-21T03:33:04;6.80;85.20
55313;DHT22;46892;45.668;11.756;2023-11-21T03:35:29;6.80;84.80
55313;DHT22;46892;45.668;11.756;2023-11-21T03:37:55;6.80;84.70
55313;DHT22;46892;45.668;11.756;2023-11-21T03:40:21;6.80;84.60
55313;DHT22;46892;45.668;11.756;2023-11-21T03:42:47;6.70;84.90
55313;DHT22;46892;45.668;11.756;2023-11-21T03:45:13;6.50;85.30
55313;DHT22;46892;45.668;11.756;2023-11-21T03:47:41;6.30;85.90
55313;DHT22;46892;45.668;11.756;2023-11-21T03:50:07;6.40;85.90
55313;DHT22;46892;45.668;11.756;2023-11-21T03:52:34;6.40;85.80
55313;DHT22;46892;45.668;11.756;2023-11-21T03:55:01;6.50;85.10
55313;DHT22;46892;45.668;11.756;2023-11-21T03:57:27;6.50;84.00
55313;DHT22;46892;45.668;11.756;2023-11-21T03:59:53;6.60;83.80
55313;DHT22;46892;45.668;11.756;2023-11-21T04:02:19;6.70;83.80
55313;DHT22;46892;45.668;11.756;2023-11-21T04:04:45;6.70;83.60
55313;DHT22;46892;45.668;11.756;2023-11-21T04:07:11;6.90;82.10
55313;DHT22;46892;45.668;11.756;2023-11-21T04:09:39;7.00;81.10
55313;DHT22;46892;45.668;11.756;2023-11-21T04:12:07;7.20;80.30
55313;DHT22;46892;45.668;11.756;2023-11-21T04:14:34;7.50;78.70
55313;DHT22;46892;45.668;11.756;2023-11-21T04:17:00;7.60;78.00
55313;DHT22;46892;45.668;11.756;2023-11-21T04:19:25;7.70;77.70
55313;DHT22;46892;45.668;11.756;2023-11-21T04:21:51;7.70;77.60
55313;DHT22;46892;45.668;11.756;2023-11-21T04:24:17;7.70;77.60
55313;DHT22;46892;45.668;11.756;2023-11-21T04:26:46;7.70;77.50
55313;DHT22;46892;45.668;11.756;2023-11-21T04:29:12;7.80;76.50
55313;DHT22;46892;45.668;11.756;2023-11-21T04:31:38;7.90;75.90
55313;DHT22;46892;45.668;11.756;2023-11-21T04:34:03;8.00;75.70
55313;DHT22;46892;45.668;11.756;2023-11-21T04:36:32;8.20;74.90
55313;DHT22;46892;45.668;11.756;2023-11-21T04:38:58;8.40;73.80
55313;DHT22;46892;45.668;11.756;2023-11-21T04:41:24;8.50;73.30
55313;DHT22;46892;45.668;11.756;2023-11-21T04:43:49;8.70;72.60
55313;DHT22;46892;45.668;11.756;2023-11-21T04:46:15;8.70;72.00
55313;DHT22;46892;45.668;11.756;2023-11-21T04:48:41;8.80;71.70
55313;DHT22;46892;45.668;11.756;2023-11-21T04:51:07;8.80;71.20
55313;DHT22;46892;45.668;11.756;2023-11-21T04:53:32;8.80;71.40
55313;DHT22;46892;45.668;11.756;2023-11-21T04:55:58;8.90;71.30
55313;DHT22;46892;45.668;11.756;2023-11-21T04:58:24;8.80;71.40
55313;DHT22;46892;45.668;11.756;2023-11-21T05:00:50;8.80;71.50
55313;DHT22;46892;45.668;11.756;2023-11-21T05:03:16;8.80;71.50
55313;DHT22;46892;45.668;11.756;2023-11-21T05:05:41;8.70;71.80
55313;DHT22;46892;45.668;11.756;2023-11-21T05:08:07;8.70;71.70
55313;DHT22;46892;45.668;11.756;2023-11-21T05:10:33;8.50;72.20
55313;DHT22;46892;45.668;11.756;2023-11-21T05:12:59;8.30;72.70
55313;DHT22;46892;45.668;11.756;2023-11-21T05:15:25;8.20;72.90
55313;DHT22;46892;45.668;11.756;2023-11-21T05:17:53;8.30;72.60
55313;DHT22;46892;45.668;11.756;2023-11-21T05:20:20;8.40;72.00
55313;DHT22;46892;45.668;11.756;2023-11-21T05:22:49;8.50;71.50
55313;DHT22;46892;45.668;11.756;2023-11-21T05:25:15;8.50;71.40
55313;DHT22;46892;45.668;11.756;2023-11-21T05:27:44;8.50;71.20
55313;DHT22;46892;45.668;11.756;2023-11-21T05:30:10;8.60;71.10
55313;DHT22;46892;45.668;11.756;2023-11-21T05:32:38;8.60;70.90
55313;DHT22;46892;45.668;11.756;2023-11-21T05:35:04;8.70;70.80
55313;DHT22;46892;45.668;11.756;2023-11-21T05:37:38;8.60;71.40
55313;DHT22;46892;45.668;11.756;2023-11-21T05:40:07;8.60;71.10
55313;DHT22;46892;45.668;11.756;2023-11-21T05:42:34;8.60;71.70
55313;DHT22;46892;45.668;11.756;2023-11-21T05:45:01;8.40;72.40
55313;DHT22;46892;45.668;11.756;2023-11-21T05:47:41;8.40;72.60
55313;DHT22;46892;45.668;11.756;2023-11-21T05:50:08;8.50;72.40
55313;DHT22;46892;45.668;11.756;2023-11-21T05:52:38;8.40;72.70
55313;DHT22;46892;45.668;11.756;2023-11-21T05:55:05;8.30;73.20
55313;DHT22;46892;45.668;11.756;2023-11-21T05:57:38;8.20;73.80
55313;DHT22;46892;45.668;11.756;2023-11-21T06:00:08;8.20;73.80
55313;DHT22;46892;45.668;11.756;2023-11-21T06:02:41;8.20;74.20
55313;DHT22;46892;45.668;11.756;2023-11-21T06:05:08;8.30;73.60
55313;DHT22;46892;45.668;11.756;2023-11-21T06:07:34;8.30;74.10
55313;DHT22;46892;45.668;11.756;2023-11-21T06:10:04;8.30;74.40
55313;DHT22;46892;45.668;11.756;2023-11-21T06:12:37;8.20;74.60
55313;DHT22;46892;45.668;11.756;2023-11-21T06:15:04;8.20;75.40
55313;DHT22;46892;45.668;11.756;2023-11-21T06:17:34;8.20;76.20
55313;DHT22;46892;45.668;11.756;2023-11-21T06:20:07;8.20;76.90
55313;DHT22;46892;45.668;11.756;2023-11-21T06:22:40;8.10;76.90
55313;DHT22;46892;45.668;11.756;2023-11-21T06:25:07;8.20;76.60
55313;DHT22;46892;45.668;11.756;2023-11-21T06:27:37;8.20;76.60
55313;DHT22;46892;45.668;11.756;2023-11-21T06:30:03;8.30;76.00
55313;DHT22;46892;45.668;11.756;2023-11-21T06:32:30;8.30;75.70
55313;DHT22;46892;45.668;11.756;2023-11-21T06:34:56;8.30;76.10
55313;DHT22;46892;45.668;11.756;2023-11-21T06:37:26;8.30;75.80
55313;DHT22;46892;45.668;11.756;2023-11-21T06:39:52;8.30;76.20
55313;DHT22;46892;45.668;11.756;2023-11-21T06:42:18;8.20;76.70
55313;DHT22;46892;45.668;11.756;2023-11-21T06:44:47;8.20;76.70
55313;DHT22;46892;45.668;11.756;2023-11-21T06:47:14;8.20;76.40
55313;DHT22;46892;45.668;11.756;2023-11-21T06:49:42;8.20;77.10
55313;DHT22;46892;45.668;11.756;2023-11-21T06:52:08;8.10;77.30
55313;DHT22;46892;45.668;11.756;2023-11-21T06:54:34;8.20;77.30
55313;DHT22;46892;45.668;11.756;2023-11-21T06:57:00;8.20;77.40
55313;DHT22;46892;45.668;11.756;2023-11-21T06:59:28;8.20;77.70
55313;DHT22;46892;45.668;11.756;2023-11-21T07:01:54;8.20;78.60
55313;DHT22;46892;45.668;11.756;2023-11-21T07:04:20;8.20;78.00
55313;DHT22;46892;45.668;11.756;2023-11-21T07:06:46;8.20;77.70
55313;DHT22;46892;45.668;11.756;2023-11-21T07:09:12;8.30;78.50
55313;DHT22;46892;45.668;11.756;2023-11-21T07:11:38;8.30;79.20
55313;DHT22;46892;45.668;11.756;2023-11-21T07:14:04;8.40;78.40
55313;DHT22;46892;45.668;11.756;2023-11-21T07:16:36;8.50;79.10
55313;DHT22;46892;45.668;11.756;2023-11-21T07:19:03;8.50;80.20
55313;DHT22;46892;45.668;11.756;2023-11-21T07:21:32;8.50;80.40
55313;DHT22;46892;45.668;11.756;2023-11-21T07:23:58;8.60;80.00
55313;DHT22;46892;45.668;11.756;2023-11-21T07:26:24;8.60;79.90
55313;DHT22;46892;45.668;11.756;2023-11-21T07:28:51;8.60;80.00
55313;DHT22;46892;45.668;11.756;2023-11-21T07:31:16;8.60;80.10
55313;DHT22;46892;45.668;11.756;2023-11-21T07:33:42;8.60;79.20
55313;DHT22;46892;45.668;11.756;2023-11-21T07:36:08;8.60;78.10
55313;DHT22;46892;45.668;11.756;2023-11-21T07:38:35;8.70;78.10
55313;DHT22;46892;45.668;11.756;2023-11-21T07:41:01;8.80;77.00
55313;DHT22;46892;45.668;11.756;2023-11-21T07:43:27;8.90;74.70
55313;DHT22;46892;45.668;11.756;2023-11-21T07:45:55;9.00;74.00
55313;DHT22;46892;45.668;11.756;2023-11-21T07:48:20;9.20;72.70
55313;DHT22;46892;45.668;11.756;2023-11-21T07:50:46;9.30;72.10
55313;DHT22;46892;45.668;11.756;2023-11-21T07:53:13;9.40;71.30
55313;DHT22;46892;45.668;11.756;2023-11-21T07:55:40;9.40;71.60
55313;DHT22;46892;45.668;11.756;2023-11-21T07:58:05;9.40;71.40
55313;DHT22;46892;45.668;11.756;2023-11-21T08:00:31;9.40;71.10
55313;DHT22;46892;45.668;11.756;2023-11-21T08:02:57;9.50;70.70
55313;DHT22;46892;45.668;11.756;2023-11-21T08:05:23;9.60;70.40
55313;DHT22;46892;45.668;11.756;2023-11-21T08:07:48;9.50;71.00
55313;DHT22;46892;45.668;11.756;2023-11-21T08:10:14;9.40;71.50
55313;DHT22;46892;45.668;11.756;2023-11-21T08:12:40;9.30;71.70
55313;DHT22;46892;45.668;11.756;2023-11-21T08:15:08;9.30;71.70
55313;DHT22;46892;45.668;11.756;2023-11-21T08:17:35;9.40;71.20
55313;DHT22;46892;45.668;11.756;2023-11-21T08:20:00;9.50;71.60
55313;DHT22;46892;45.668;11.756;2023-11-21T08:22:27;9.40;72.60
55313;DHT22;46892;45.668;11.756;2023-11-21T08:24:53;9.40;73.20
55313;DHT22;46892;45.668;11.756;2023-11-21T08:27:22;9.30;73.10
55313;DHT22;46892;45.668;11.756;2023-11-21T08:29:47;9.40;72.90
55313;DHT22;46892;45.668;11.756;2023-11-21T08:32:13;9.40;73.10
55313;DHT22;46892;45.668;11.756;2023-11-21T08:34:39;9.50;73.30
55313;DHT22;46892;45.668;11.756;2023-11-21T08:37:08;9.30;74.60
55313;DHT22;46892;45.668;11.756;2023-11-21T08:39:34;9.40;75.20
55313;DHT22;46892;45.668;11.756;2023-11-21T08:41:59;9.30;75.70
55313;DHT22;46892;45.668;11.756;2023-11-21T08:44:25;9.30;75.70
55313;DHT22;46892;45.668;11.756;2023-11-21T08:46:51;9.30;75.50
55313;DHT22;46892;45.668;11.756;2023-11-21T08:49:16;9.20;75.60
55313;DHT22;46892;45.668;11.756;2023-11-21T08:51:44;9.30;76.30
55313;DHT22;46892;45.668;11.756;2023-11-21T08:54:10;9.20;76.10
55313;DHT22;46892;45.668;11.756;2023-11-21T08:56:37;9.30;75.80
55313;DHT22;46892;45.668;11.756;2023-11-21T08:59:03;9.30;76.40
55313;DHT22;46892;45.668;11.756;2023-11-21T09:01:29;9.30;78.20
55313;DHT22;46892;45.668;11.756;2023-11-21T09:03:57;9.30;77.90
55313;DHT22;46892;45.668;11.756;2023-11-21T09:06:24;9.30;78.00
55313;DHT22;46892;45.668;11.756;2023-11-21T09:08:50;9.40;79.70
55313;DHT22;46892;45.668;11.756;2023-11-21T09:11:16;9.40;79.30
55313;DHT22;46892;45.668;11.756;2023-11-21T09:13:42;9.40;78.70
55313;DHT22;46892;45.668;11.756;2023-11-21T09:16:08;9.40;78.30
55313;DHT22;46892;45.668;11.756;2023-11-21T09:18:34;9.40;78.50
55313;DHT22;46892;45.668;11.756;2023-11-21T09:21:00;9.40;78.30
55313;DHT22;46892;45.668;11.756;2023-11-21T09:23:25;9.50;78.40
55313;DHT22;46892;45.668;11.756;2023-11-21T09:25:51;9.50;79.10
55313;DHT22;46892;45.668;11.756;2023-11-21T09:28:17;9.50;79.80
55313;DHT22;46892;45.668;11.756;2023-11-21T09:30:43;9.60;80.40
55313;DHT22;46892;45.668;11.756;2023-11-21T09:33:09;9.60;80.60
55313;DHT22;46892;45.668;11.756;2023-11-21T09:35:39;9.60;80.70
55313;DHT22;46892;45.668;11.756;2023-11-21T09:38:05;9.70;80.40
55313;DHT22;46892;45.668;11.756;2023-11-21T09:40:37;9.70;78.70
55313;DHT22;46892;45.668;11.756;2023-11-21T09:43:15;9.70;79.10
55313;DHT22;46892;45.668;11.756;2023-11-21T09:45:46;9.70;78.90
55313;DHT22;46892;45.668;11.756;2023-11-21T09:48:13;9.80;79.20
55313;DHT22;46892;45.668;11.756;2023-11-21T09:50:42;9.70;79.00
55313;DHT22;46892;45.668;11.756;2023-11-21T09:55:45;9.80;77.50
55313;DHT22;46892;45.668;11.756;2023-11-21T09:58:13;9.80;78.10
55313;DHT22;46892;45.668;11.756;2023-11-21T10:00:46;9.80;78.70
55313;DHT22;46892;45.668;11.756;2023-11-21T10:03:13;9.80;79.20
55313;DHT22;46892;45.668;11.756;2023-11-21T10:05:40;9.80;79.50
55313;DHT22;46892;45.668;11.756;2023-11-21T10:08:10;9.80;79.80
55313;DHT22;46892;45.668;11.756;2023-11-21T10:10:37;9.90;80.90
55313;DHT22;46892;45.668;11.756;2023-11-21T10:13:05;9.90;80.80
55313;DHT22;46892;45.668;11.756;2023-11-21T10:15:34;9.90;80.70
55313;DHT22;46892;45.668;11.756;2023-11-21T10:18:03;9.90;80.90
55313;DHT22;46892;45.668;11.756;2023-11-21T10:20:30;9.80;81.70
55313;DHT22;46892;45.668;11.756;2023-11-21T10:22:57;9.90;82.00
55313;DHT22;46892;45.668;11.756;2023-11-21T10:25:22;9.90;82.20
55313;DHT22;46892;45.668;11.756;2023-11-21T10:27:49;9.90;82.60
55313;DHT22;46892;45.668;11.756;2023-11-21T10:30:17;10.00;82.10
55313;DHT22;46892;45.668;11.756;2023-11-21T10:32:43;10.00;82.40
55313;DHT22;46892;45.668;11.756;2023-11-21T10:35:10;10.20;80.50
55313;DHT22;46892;45.668;11.756;2023-11-21T10:37:39;10.30;76.60
55313;DHT22;46892;45.668;11.756;2023-11-21T10:40:10;10.30;76.10
55313;DHT22;46892;45.668;11.756;2023-11-21T10:42:40;10.30;77.10
55313;DHT22;46892;45.668;11.756;2023-11-21T10:45:10;10.30;77.70
55313;DHT22;46892;45.668;11.756;2023-11-21T10:47:41;10.30;77.90
55313;DHT22;46892;45.668;11.756;2023-11-21T10:50:07;10.30;77.50
55313;DHT22;46892;45.668;11.756;2023-11-21T10:52:37;10.30;77.60
55313;DHT22;46892;45.668;11.756;2023-11-21T10:55:16;10.30;79.40
55313;DHT22;46892;45.668;11.756;2023-11-21T10:57:45;10.30;79.80
55313;DHT22;46892;45.668;11.756;2023-11-21T11:00:14;10.30;80.10
55313;DHT22;46892;45.668;11.756;2023-11-21T11:02:42;10.50;78.50
55313;DHT22;46892;45.668;11.756;2023-11-21T11:05:08;10.60;77.70
55313;DHT22;46892;45.668;11.756;2023-11-21T11:07:40;10.60;78.10
55313;DHT22;46892;45.668;11.756;2023-11-21T11:10:09;10.60;78.00
55313;DHT22;46892;45.668;11.756;2023-11-21T11:12:40;10.70;78.30
55313;DHT22;46892;45.668;11.756;2023-11-21T11:15:07;10.70;78.50
55313;DHT22;46892;45.668;11.756;2023-11-21T11:17:37;10.80;78.70
55313;DHT22;46892;45.668;11.756;2023-11-21T11:20:09;10.80;79.40
55313;DHT22;46892;45.668;11.756;2023-11-21T11:22:44;11.00;79.10
55313;DHT22;46892;45.668;11.756;2023-11-21T11:25:27;11.10;78.50
55313;DHT22;46892;45.668;11.756;2023-11-21T11:28:03;11.20;78.30
55313;DHT22;46892;45.668;11.756;2023-11-21T11:33:25;11.50;78.10
55313;DHT22;46892;45.668;11.756;2023-11-21T11:38:39;11.80;76.40
55313;DHT22;46892;45.668;11.756;2023-11-21T11:41:10;11.70;74.90
55313;DHT22;46892;45.668;11.756;2023-11-21T11:43:36;11.80;74.80
55313;DHT22;46892;45.668;11.756;2023-11-21T11:46:11;11.80;73.50
55313;DHT22;46892;45.668;11.756;2023-11-21T11:48:40;11.80;74.00
55313;DHT22;46892;45.668;11.756;2023-11-21T11:51:13;11.70;74.00
55313;DHT22;46892;45.668;11.756;2023-11-21T11:53:51;11.70;74.70
55313;DHT22;46892;45.668;11.756;2023-11-21T11:56:25;11.70;75.30
55313;DHT22;46892;45.668;11.756;2023-11-21T11:58:56;11.70;74.00
55313;DHT22;46892;45.668;11.756;2023-11-21T12:01:23;11.60;74.50
55313;DHT22;46892;45.668;11.756;2023-11-21T12:06:42;11.50;76.30
55313;DHT22;46892;45.668;11.756;2023-11-21T12:09:24;11.50;76.20
55313;DHT22;46892;45.668;11.756;2023-11-21T12:11:52;11.60;75.90
55313;DHT22;46892;45.668;11.756;2023-11-21T12:14:18;11.50;76.20
55313;DHT22;46892;45.668;11.756;2023-11-21T12:16:44;11.50;76.30
55313;DHT22;46892;45.668;11.756;2023-11-21T12:19:13;11.50;77.00
55313;DHT22;46892;45.668;11.756;2023-11-21T12:21:40;11.60;75.70
55313;DHT22;46892;45.668;11.756;2023-11-21T12:24:10;11.50;76.60
55313;DHT22;46892;45.668;11.756;2023-11-21T12:26:42;11.50;77.00
55313;DHT22;46892;45.668;11.756;2023-11-21T12:29:08;11.50;76.30
55313;DHT22;46892;45.668;11.756;2023-11-21T12:31:34;11.40;76.70
55313;DHT22;46892;45.668;11.756;2023-11-21T12:34:00;11.30;78.00
55313;DHT22;46892;45.668;11.756;2023-11-21T12:36:26;11.30;78.30
55313;DHT22;46892;45.668;11.756;2023-11-21T12:38:54;11.30;79.80
55313;DHT22;46892;45.668;11.756;2023-11-21T12:41:21;11.20;79.90
55313;DHT22;46892;45.668;11.756;2023-11-21T12:43:47;11.20;80.60
55313;DHT22;46892;45.668;11.756;2023-11-21T12:46:14;11.20;80.60
55313;DHT22;46892;45.668;11.756;2023-11-21T12:48:44;11.20;80.50
55313;DHT22;46892;45.668;11.756;2023-11-21T12:51:13;11.20;80.60
55313;DHT22;46892;45.668;11.756;2023-11-21T12:53:41;11.10;80.70
55313;DHT22;46892;45.668;11.756;2023-11-21T12:56:10;11.00;80.90
55313;DHT22;46892;45.668;11.756;2023-11-21T12:58:40;11.10;81.10
55313;DHT22;46892;45.668;11.756;2023-11-21T13:01:10;11.20;80.00
55313;DHT22;46892;45.668;11.756;2023-11-21T13:03:38;11.30;79.80
55313;DHT22;46892;45.668;11.756;2023-11-21T13:06:06;11.30;79.90
55313;DHT22;46892;45.668;11.756;2023-11-21T13:08:33;11.20;79.70
55313;DHT22;46892;45.668;11.756;2023-11-21T13:10:59;11.30;79.80
55313;DHT22;46892;45.668;11.756;2023-11-21T13:13:28;11.20;79.50
55313;DHT22;46892;45.668;11.756;2023-11-21T13:15:58;11.20;80.10
55313;DHT22;46892;45.668;11.756;2023-11-21T13:18:27;11.20;80.30
55313;DHT22;46892;45.668;11.756;2023-11-21T13:20:57;11.20;79.60
55313;DHT22;46892;45.668;11.756;2023-11-21T13:23:24;11.20;80.00
55313;DHT22;46892;45.668;11.756;2023-11-21T13:25:51;11.20;80.10
55313;DHT22;46892;45.668;11.756;2023-11-21T13:28:17;11.20;80.30
55313;DHT22;46892;45.668;11.756;2023-11-21T13:30:46;11.10;80.60
55313;DHT22;46892;45.668;11.756;2023-11-21T13:33:14;11.20;80.80
55313;DHT22;46892;45.668;11.756;2023-11-21T13:35:44;11.20;80.80
55313;DHT22;46892;45.668;11.756;2023-11-21T13:38:14;11.20;81.10
55313;DHT22;46892;45.668;11.756;2023-11-21T13:40:48;11.30;81.00
55313;DHT22;46892;45.668;11.756;2023-11-21T13:43:16;11.30;81.30
55313;DHT22;46892;45.668;11.756;2023-11-21T13:45:44;11.30;81.20
55313;DHT22;46892;45.668;11.756;2023-11-21T13:48:12;11.20;81.50
55313;DHT22;46892;45.668;11.756;2023-11-21T13:50:45;11.20;82.00
55313;DHT22;46892;45.668;11.756;2023-11-21T13:53:23;11.10;82.70
55313;DHT22;46892;45.668;11.756;2023-11-21T13:55:53;11.10;82.70
55313;DHT22;46892;45.668;11.756;2023-11-21T13:58:25;11.10;82.70
55313;DHT22;46892;45.668;11.756;2023-11-21T14:01:22;11.10;83.30
55313;DHT22;46892;45.668;11.756;2023-11-21T14:04:01;11.10;83.60
55313;DHT22;46892;45.668;11.756;2023-11-21T14:06:43;11.20;83.50
55313;DHT22;46892;45.668;11.756;2023-11-21T14:09:22;11.20;83.40
55313;DHT22;46892;45.668;11.756;2023-11-21T14:11:55;11.30;83.20
55313;DHT22;46892;45.668;11.756;2023-11-21T14:14:25;11.20;83.20
55313;DHT22;46892;45.668;11.756;2023-11-21T14:16:52;11.20;83.30
55313;DHT22;46892;45.668;11.756;2023-11-21T14:19:18;11.20;83.40
55313;DHT22;46892;45.668;11.756;2023-11-21T14:21:44;11.30;83.50
55313;DHT22;46892;45.668;11.756;2023-11-21T14:24:13;11.30;83.50
55313;DHT22;46892;45.668;11.756;2023-11-21T14:26:44;11.30;83.40
55313;DHT22;46892;45.668;11.756;2023-11-21T14:29:17;11.30;82.90
55313;DHT22;46892;45.668;11.756;2023-11-21T14:31:46;11.30;83.10
55313;DHT22;46892;45.668;11.756;2023-11-21T14:34:12;11.30;82.90
55313;DHT22;46892;45.668;11.756;2023-11-21T14:36:39;11.40;82.50
55313;DHT22;46892;45.668;11.756;2023-11-21T14:39:05;11.30;82.10
55313;DHT22;46892;45.668;11.756;2023-11-21T14:41:49;11.30;82.10
55313;DHT22;46892;45.668;11.756;2023-11-21T14:44:15;11.30;81.40
55313;DHT22;46892;45.668;11.756;2023-11-21T14:46:42;11.30;81.10
55313;DHT22;46892;45.668;11.756;2023-11-21T14:49:12;11.30;81.00
55313;DHT22;46892;45.668;11.756;2023-11-21T14:51:52;11.40;80.80
55313;DHT22;46892;45.668;11.756;2023-11-21T14:54:29;11.40;80.60
55313;DHT22;46892;45.668;11.756;2023-11-21T14:57:12;11.40;80.70
55313;DHT22;46892;45.668;11.756;2023-11-21T14:59:47;11.40;80.50
55313;DHT22;46892;45.668;11.756;2023-11-21T15:02:16;11.40;80.60
55313;DHT22;46892;45.668;11.756;2023-11-21T15:04:46;11.30;80.50
55313;DHT22;46892;45.668;11.756;2023-11-21T15:07:12;11.30;80.60
55313;DHT22;46892;45.668;11.756;2023-11-21T15:09:37;11.30;80.60
55313;DHT22;46892;45.668;11.756;2023-11-21T15:12:11;11.30;80.50
55313;DHT22;46892;45.668;11.756;2023-11-21T15:14:50;11.30;80.40
55313;DHT22;46892;45.668;11.756;2023-11-21T15:17:20;11.30;80.00
55313;DHT22;46892;45.668;11.756;2023-11-21T15:19:51;11.30;80.10
55313;DHT22;46892;45.668;11.756;2023-11-21T15:22:18;11.30;80.00
55313;DHT22;46892;45.668;11.756;2023-11-21T15:24:44;11.30;79.80
55313;DHT22;46892;45.668;11.756;2023-11-21T15:27:13;11.30;79.30
55313;DHT22;46892;45.668;11.756;2023-11-21T15:29:41;11.30;79.20
55313;DHT22;46892;45.668;11.756;2023-11-21T15:32:07;11.40;79.40
55313;DHT22;46892;45.668;11.756;2023-11-21T15:34:34;11.30;79.40
55313;DHT22;46892;45.668;11.756;2023-11-21T15:37:00;11.30;79.60
55313;DHT22;46892;45.668;11.756;2023-11-21T15:39:26;11.30;79.40